Time,TemperatureF,DewpointF,PressureIn,WindDirection,WindDirectionDegrees,WindSpeedMPH,WindSpeedGustMPH,Humidity,HourlyPrecipIn,Conditions,Clouds,dailyrainin,SolarRadiationWatts/m^2,SoftwareType,DateUTC
2013-05-21 00:01:00,58.8,57.4,29.46,East,89,2.0,5.0,95,0.00,,---,0.36,0.00,VWS V14.01,2013-05-21 05:01:00,
2013-05-21 00:06:00,59.0,57.6,29.46,East,88,2.0,5.0,95,0.00,,---,0.00,0.00,VWS V14.01,2013-05-21 05:06:00,
2013-05-21 00:11:00,59.0,57.6,29.46,East,89,6.0,7.0,95,0.00,,---,0.00,0.00,VWS V14.01,2013-05-21 05:11:00,
2013-05-21 00:16:00,59.0,57.6,29.46,East,92,2.0,7.0,95,0.00,,---,0.00,0.00,VWS V14.01,2013-05-21 05:16:00,
2013-05-21 00:21:00,59.1,57.7,29.46,East,96,4.0,6.0,95,0.00,,---,0.00,0.00,VWS V14.01,2013-05-21 05:21:00,
2013-05-21 00:26:00,59.3,57.6,29.46,ESE,103,5.0,9.0,94,0.00,,---,0.00,0.00,VWS V14.01,2013-05-21 05:26:00,
2013-05-21 00:31:00,59.4,57.7,29.46,ESE,103,0.0,9.0,94,0.00,,---,0.00,0.00,VWS V14.01,2013-05-21 05:31:00,
2013-05-21 00:36:00,59.5,58.1,29.46,ESE,103,0.0,6.0,95,0.00,,---,0.00,0.00,VWS V14.01,2013-05-21 05:36:00,
2013-05-21 00:41:00,59.5,58.1,29.46,ESE,103,5.0,7.0,95,0.00,,---,0.00,0.00,VWS V14.01,2013-05-21 05:41:00,
2013-05-21 00:46:00,59.6,58.2,29.46,ESE,103,4.0,7.0,95,0.00,,---,0.00,0.00,VWS V14.01,2013-05-21 05:46:00,
2013-05-21 00:51:00,59.6,58.2,29.45,ESE,103,4.0,7.0,95,0.00,,---,0.00,0.00,VWS V14.01,2013-05-21 05:51:00,
2013-05-21 00:56:00,59.6,58.2,29.45,ESE,103,5.0,7.0,95,0.00,,---,0.00,0.00,VWS V14.01,2013-05-21 05:56:00,
2013-05-21 01:01:00,59.7,58.3,29.45,ESE,103,4.0,7.0,95,0.00,,---,0.00,0.00,VWS V14.01,2013-05-21 06:01:00,
2013-05-21 01:06:00,59.6,58.2,29.44,ESE,103,4.0,6.0,95,0.00,,---,0.00,0.00,VWS V14.01,2013-05-21 06:06:00,
2013-05-21 01:11:00,59.7,58.3,29.44,ESE,103,7.0,7.0,95,0.00,,---,0.00,0.00,VWS V14.01,2013-05-21 06:11:00,
2013-05-21 01:16:00,59.7,58.3,29.44,ESE,103,4.0,7.0,95,0.00,,---,0.00,0.00,VWS V14.01,2013-05-21 06:16:00,
2013-05-21 01:21:00,59.8,58.4,29.44,ESE,103,4.0,6.0,95,0.00,,---,0.00,0.00,VWS V14.01,2013-05-21 06:21:00,
2013-05-21 01:26:00,59.8,58.4,29.44,ESE,103,4.0,6.0,95,0.00,,---,0.00,0.00,VWS V14.01,2013-05-21 06:26:00,
2013-05-21 01:31:00,59.8,58.1,29.44,ESE,103,4.0,6.0,94,0.00,,---,0.00,0.00,VWS V14.01,2013-05-21 06:31:00,
2013-05-21 01:36:00,59.8,58.4,29.44,ESE,103,3.0,4.0,95,0.00,,---,0.00,0.00,VWS V14.01,2013-05-21 06:36:00,
2013-05-21 01:41:00,59.8,58.1,29.44,ESE,103,4.0,6.0,94,0.00,,---,0.00,0.00,VWS V14.01,2013-05-21 06:41:00,
2013-05-21 01:46:00,59.8,58.1,29.44,ESE,103,3.0,6.0,94,0.00,,---,0.00,0.00,VWS V14.01,2013-05-21 06:46:00,
2013-05-21 01:51:00,59.8,58.1,29.43,ESE,103,4.0,5.0,94,0.00,,---,0.00,0.00,VWS V14.01,2013-05-21 06:51:00,
2013-05-21 01:56:00,59.9,58.2,29.43,ESE,103,4.0,6.0,94,0.00,,---,0.00,0.00,VWS V14.01,2013-05-21 06:56:00,
2013-05-21 02:01:00,59.9,58.2,29.43,ESE,103,4.0,7.0,94,0.00,,---,0.00,0.00,VWS V14.01,2013-05-21 07:01:00,
2013-05-21 02:06:00,59.9,58.2,29.43,ESE,103,6.0,7.0,94,0.00,,---,0.00,0.00,VWS V14.01,2013-05-21 07:06:00,
2013-05-21 02:11:00,59.9,58.2,29.43,ESE,103,6.0,7.0,94,0.00,,---,0.00,0.00,VWS V14.01,2013-05-21 07:11:00,
2013-05-21 02:16:00,59.9,58.2,29.43,ESE,106,4.0,9.0,94,0.00,,---,0.00,0.00,VWS V14.01,2013-05-21 07:16:00,
2013-05-21 02:21:00,59.9,58.2,29.43,ESE,111,4.0,7.0,94,0.00,,---,0.00,0.00,VWS V14.01,2013-05-21 07:21:00,
2013-05-21 02:26:00,60.0,58.3,29.43,ESE,117,5.0,7.0,94,0.00,,---,0.00,0.00,VWS V14.01,2013-05-21 07:26:00,
2013-05-21 02:31:00,60.0,58.3,29.43,SE,127,3.0,7.0,94,0.00,,---,0.00,0.00,VWS V14.01,2013-05-21 07:31:00,
2013-05-21 02:36:00,60.0,58.3,29.43,SE,127,2.0,4.0,94,0.00,,---,0.00,0.00,VWS V14.01,2013-05-21 07:36:00,
2013-05-21 02:41:00,60.0,58.3,29.43,SE,127,4.0,5.0,94,0.00,,---,0.00,0.00,VWS V14.01,2013-05-21 07:41:00,
2013-05-21 02:46:00,60.0,58.3,29.43,SE,126,3.0,5.0,94,0.00,,---,0.00,0.00,VWS V14.01,2013-05-21 07:46:00,
2013-05-21 02:51:00,59.9,58.2,29.43,SE,126,3.0,4.0,94,0.00,,---,0.00,0.00,VWS V14.01,2013-05-21 07:51:00,
2013-05-21 02:56:00,60.0,58.3,29.43,SE,126,3.0,6.0,94,0.00,,---,0.00,0.00,VWS V14.01,2013-05-21 07:56:00,
2013-05-21 03:01:00,59.9,57.9,29.43,SE,126,2.0,6.0,93,0.00,,---,0.00,0.00,VWS V14.01,2013-05-21 08:01:00,
2013-05-21 03:06:00,59.9,57.9,29.43,SE,127,0.0,0.0,93,0.00,,---,0.00,0.00,VWS V14.01,2013-05-21 08:06:00,
2013-05-21 03:11:00,59.9,57.9,29.43,SE,126,1.0,2.0,93,0.00,,---,0.00,0.00,VWS V14.01,2013-05-21 08:11:00,
2013-05-21 03:16:00,59.8,57.8,29.43,SE,127,4.0,4.0,93,0.00,,---,0.00,0.00,VWS V14.01,2013-05-21 08:16:00,
2013-05-21 03:21:00,59.8,57.8,29.43,SE,126,4.0,4.0,93,0.00,,---,0.00,0.00,VWS V14.01,2013-05-21 08:21:00,
2013-05-21 03:26:00,59.8,57.8,29.43,SE,126,2.0,5.0,93,0.00,,---,0.00,0.00,VWS V14.01,2013-05-21 08:26:00,
2013-05-21 03:31:00,59.8,57.8,29.43,SE,127,5.0,5.0,93,0.00,,---,0.00,0.00,VWS V14.01,2013-05-21 08:31:00,
2013-05-21 03:36:00,59.8,57.8,29.44,SE,133,5.0,7.0,93,0.00,,---,0.00,0.00,VWS V14.01,2013-05-21 08:36:00,
2013-05-21 03:41:00,59.8,57.8,29.44,SSE,152,6.0,7.0,93,0.00,,---,0.00,0.00,VWS V14.01,2013-05-21 08:41:00,
2013-05-21 03:46:00,59.8,57.8,29.44,SSE,161,6.0,7.0,93,0.00,,---,0.00,0.00,VWS V14.01,2013-05-21 08:46:00,
2013-05-21 03:51:00,59.8,57.8,29.44,SSE,164,5.0,7.0,93,0.00,,---,0.00,0.00,VWS V14.01,2013-05-21 08:51:00,
2013-05-21 03:56:00,59.8,57.8,29.44,SSE,164,6.0,7.0,93,0.00,,---,0.00,0.00,VWS V14.01,2013-05-21 08:56:00,
2013-05-21 04:01:00,59.7,57.7,29.44,SSE,165,3.0,7.0,93,0.00,,---,0.00,0.00,VWS V14.01,2013-05-21 09:01:00,
2013-05-21 04:06:00,59.7,57.7,29.44,SSE,165,3.0,6.0,93,0.00,,---,0.00,0.00,VWS V14.01,2013-05-21 09:06:00,
2013-05-21 04:11:00,59.6,57.6,29.44,South,169,3.0,7.0,93,0.00,,---,0.00,0.00,VWS V14.01,2013-05-21 09:11:00,
2013-05-21 04:16:00,59.6,57.3,29.44,South,169,5.0,7.0,92,0.00,,---,0.00,0.00,VWS V14.01,2013-05-21 09:16:00,
2013-05-21 04:21:00,59.5,57.2,29.44,South,178,4.0,6.0,92,0.00,,---,0.00,0.00,VWS V14.01,2013-05-21 09:21:00,
2013-05-21 04:26:00,59.4,57.1,29.44,South,185,5.0,6.0,92,0.00,,---,0.00,0.00,VWS V14.01,2013-05-21 09:26:00,
2013-05-21 04:31:00,59.3,57.0,29.44,South,187,4.0,6.0,92,0.00,,---,0.00,0.00,VWS V14.01,2013-05-21 09:31:00,
2013-05-21 04:36:00,59.2,56.9,29.44,SSW,201,6.0,6.0,92,0.00,,---,0.00,0.00,VWS V14.01,2013-05-21 09:36:00,
2013-05-21 04:41:00,59.0,56.7,29.44,SW,217,5.0,8.0,92,0.00,,---,0.00,0.00,VWS V14.01,2013-05-21 09:41:00,
2013-05-21 04:46:00,59.0,56.7,29.45,SW,218,6.0,8.0,92,0.00,,---,0.00,0.00,VWS V14.01,2013-05-21 09:46:00,
2013-05-21 04:51:00,59.0,56.7,29.45,SW,222,5.0,9.0,92,0.00,,---,0.00,0.00,VWS V14.01,2013-05-21 09:51:00,
2013-05-21 04:56:00,59.0,56.7,29.45,SW,229,5.0,9.0,92,0.00,,---,0.00,0.00,VWS V14.01,2013-05-21 09:56:00,
2013-05-21 05:01:00,59.0,56.7,29.45,SW,236,7.0,10.0,92,0.00,,---,0.00,0.00,VWS V14.01,2013-05-21 10:01:00,
2013-05-21 05:06:00,59.0,56.7,29.45,WSW,242,7.0,9.0,92,0.00,,---,0.00,0.00,VWS V14.01,2013-05-21 10:06:00,
2013-05-21 05:11:00,58.8,56.5,29.44,WSW,241,4.0,9.0,92,0.00,,---,0.00,0.00,VWS V14.01,2013-05-21 10:11:00,
2013-05-21 05:16:00,58.6,56.0,29.45,SW,236,7.0,10.0,91,0.00,,---,0.00,0.00,VWS V14.01,2013-05-21 10:16:00,
2013-05-21 05:21:00,58.5,55.9,29.45,WSW,238,6.0,8.0,91,0.00,,---,0.00,0.00,VWS V14.01,2013-05-21 10:21:00,
2013-05-21 05:26:00,58.4,56.1,29.45,WSW,238,5.0,8.0,92,0.00,,---,0.00,0.00,VWS V14.01,2013-05-21 10:26:00,
2013-05-21 05:31:00,58.3,56.0,29.45,WSW,238,5.0,8.0,92,0.00,,---,0.00,0.00,VWS V14.01,2013-05-21 10:31:00,
2013-05-21 05:36:00,58.2,55.9,29.45,SW,233,5.0,10.0,92,0.00,,---,0.00,0.00,VWS V14.01,2013-05-21 10:36:00,
2013-05-21 05:41:00,58.1,55.8,29.46,SW,233,5.0,10.0,92,0.00,,---,0.00,0.00,VWS V14.01,2013-05-21 10:41:00,
2013-05-21 05:46:00,58.0,55.7,29.46,SW,233,5.0,10.0,92,0.00,,---,0.00,0.00,VWS V14.01,2013-05-21 10:46:00,
2013-05-21 05:51:00,58.0,55.7,29.46,SW,233,3.0,5.0,92,0.00,,---,0.00,0.00,VWS V14.01,2013-05-21 10:51:00,
2013-05-21 05:56:00,58.0,55.7,29.46,SW,229,6.0,6.0,92,0.00,,---,0.00,0.00,VWS V14.01,2013-05-21 10:56:00,
2013-05-21 06:01:00,58.0,55.7,29.46,SW,229,6.0,7.0,92,0.00,,---,0.00,0.00,VWS V14.01,2013-05-21 11:01:00,
2013-05-21 06:06:00,57.9,55.6,29.46,SW,229,5.0,7.0,92,0.00,,---,0.00,0.00,VWS V14.01,2013-05-21 11:06:00,
2013-05-21 06:11:00,57.8,55.5,29.47,SW,224,5.0,9.0,92,0.00,,---,0.00,0.00,VWS V14.01,2013-05-21 11:11:00,
2013-05-21 06:16:00,57.8,55.5,29.47,SW,225,6.0,9.0,92,0.00,,---,0.00,7.00,VWS V14.01,2013-05-21 11:16:00,
2013-05-21 06:21:00,57.7,55.4,29.47,SW,223,5.0,10.0,92,0.00,,---,0.00,9.00,VWS V14.01,2013-05-21 11:21:00,
2013-05-21 06:26:00,57.7,55.4,29.47,SW,225,6.0,10.0,92,0.00,,---,0.00,11.00,VWS V14.01,2013-05-21 11:26:00,
2013-05-21 06:31:00,57.7,55.4,29.47,SW,223,7.0,10.0,92,0.00,,---,0.00,12.00,VWS V14.01,2013-05-21 11:31:00,
2013-05-21 06:36:00,57.6,55.3,29.47,SW,224,6.0,11.0,92,0.00,,---,0.00,12.00,VWS V14.01,2013-05-21 11:36:00,
2013-05-21 06:41:00,57.6,55.3,29.48,SW,227,7.0,12.0,92,0.00,,---,0.00,18.00,VWS V14.01,2013-05-21 11:41:00,
2013-05-21 06:46:00,57.6,55.3,29.48,SW,225,10.0,12.0,92,0.00,,---,0.00,25.00,VWS V14.01,2013-05-21 11:46:00,
2013-05-21 06:51:00,57.6,55.3,29.48,SW,221,6.0,12.0,92,0.00,,---,0.00,26.00,VWS V14.01,2013-05-21 11:51:00,
2013-05-21 06:56:00,57.6,55.0,29.48,SW,222,6.0,14.0,91,0.00,,---,0.00,26.00,VWS V14.01,2013-05-21 11:56:00,
2013-05-21 07:01:00,57.5,54.9,29.48,SW,221,5.0,14.0,91,0.00,,---,0.00,37.00,VWS V14.01,2013-05-21 12:01:00,
2013-05-21 07:06:00,57.5,54.9,29.48,SW,227,8.0,13.0,91,0.00,,---,0.00,46.00,VWS V14.01,2013-05-21 12:06:00,
2013-05-21 07:11:00,57.5,54.9,29.48,SW,224,5.0,13.0,91,0.00,,---,0.00,47.00,VWS V14.01,2013-05-21 12:11:00,
2013-05-21 07:16:00,57.5,54.9,29.48,SW,217,6.0,13.0,91,0.00,,---,0.00,51.00,VWS V14.01,2013-05-21 12:16:00,
2013-05-21 07:21:00,57.4,54.8,29.48,SW,218,6.0,10.0,91,0.00,,---,0.00,54.00,VWS V14.01,2013-05-21 12:21:00,
2013-05-21 07:26:00,57.3,54.7,29.49,SW,214,7.0,13.0,91,0.00,,---,0.00,62.00,VWS V14.01,2013-05-21 12:26:00,
2013-05-21 07:31:00,57.4,54.8,29.49,SSW,207,5.0,13.0,91,0.00,,---,0.00,69.00,VWS V14.01,2013-05-21 12:31:00,
2013-05-21 07:36:00,57.2,54.3,29.49,SSW,211,11.0,11.0,90,0.00,,---,0.00,77.00,VWS V14.01,2013-05-21 12:36:00,
2013-05-21 07:41:00,57.1,54.2,29.49,SW,214,10.0,16.0,90,0.00,,---,0.00,86.00,VWS V14.01,2013-05-21 12:41:00,
2013-05-21 07:46:00,57.0,53.8,29.49,SW,215,8.0,16.0,89,0.00,,---,0.00,81.00,VWS V14.01,2013-05-21 12:46:00,
2013-05-21 07:51:00,57.0,54.1,29.49,SSW,207,7.0,11.0,90,0.00,,---,0.00,84.00,VWS V14.01,2013-05-21 12:51:00,
2013-05-21 07:56:00,57.1,54.2,29.49,SSW,198,9.0,12.0,90,0.00,,---,0.00,111.00,VWS V14.01,2013-05-21 12:56:00,
2013-05-21 08:01:00,57.0,53.8,29.50,SSW,199,6.0,12.0,89,0.00,,---,0.00,113.00,VWS V14.01,2013-05-21 13:01:00,
2013-05-21 08:06:00,57.1,53.9,29.50,SSW,208,9.0,10.0,89,0.00,,---,0.00,120.00,VWS V14.01,2013-05-21 13:06:00,
2013-05-21 08:11:00,57.1,53.9,29.50,SSW,200,9.0,11.0,89,0.00,,---,0.00,86.00,VWS V14.01,2013-05-21 13:11:00,
2013-05-21 08:16:00,57.1,53.9,29.50,SSW,205,9.0,11.0,89,0.00,,---,0.00,171.00,VWS V14.01,2013-05-21 13:16:00,
2013-05-21 08:21:00,57.1,53.9,29.50,SSW,209,5.0,10.0,89,0.00,,---,0.00,162.00,VWS V14.01,2013-05-21 13:21:00,
2013-05-21 08:26:00,57.4,54.2,29.50,SSW,202,5.0,10.0,89,0.00,,---,0.00,343.00,VWS V14.01,2013-05-21 13:26:00,
2013-05-21 08:31:00,58.1,54.6,29.50,SSW,210,12.0,16.0,88,0.00,,---,0.00,413.00,VWS V14.01,2013-05-21 13:31:00,
2013-05-21 08:36:00,58.1,53.9,29.50,SW,233,8.0,14.0,86,0.00,,---,0.00,195.00,VWS V14.01,2013-05-21 13:36:00,
2013-05-21 08:41:00,58.1,53.9,29.50,SW,225,11.0,14.0,86,0.00,,---,0.00,251.00,VWS V14.01,2013-05-21 13:41:00,
2013-05-21 08:46:00,58.0,53.8,29.51,SW,228,11.0,15.0,86,0.00,,---,0.00,213.00,VWS V14.01,2013-05-21 13:46:00,
2013-05-21 08:51:00,58.1,54.3,29.51,SSW,213,11.0,12.0,87,0.00,,---,0.00,283.00,VWS V14.01,2013-05-21 13:51:00,
2013-05-21 08:56:00,58.6,55.1,29.51,SSW,212,8.0,15.0,88,0.00,,---,0.00,350.00,VWS V14.01,2013-05-21 13:56:00,
2013-05-21 09:01:00,58.9,55.0,29.51,SW,226,12.0,15.0,87,0.00,,---,0.00,327.00,VWS V14.01,2013-05-21 14:01:00,
2013-05-21 09:06:00,58.9,55.0,29.51,SW,222,13.0,15.0,87,0.00,,---,0.00,193.00,VWS V14.01,2013-05-21 14:06:00,
2013-05-21 09:11:00,58.4,54.2,29.51,SSW,205,13.0,15.0,86,0.00,,---,0.00,773.00,VWS V14.01,2013-05-21 14:11:00,
2013-05-21 09:16:00,58.6,54.4,29.51,South,186,9.0,15.0,86,0.00,,---,0.00,350.00,VWS V14.01,2013-05-21 14:16:00,
2013-05-21 09:21:00,58.5,54.3,29.51,SSW,202,11.0,12.0,86,0.00,,---,0.00,302.00,VWS V14.01,2013-05-21 14:21:00,
2013-05-21 09:26:00,58.8,55.0,29.51,SSW,203,7.0,12.0,87,0.00,,---,0.00,364.00,VWS V14.01,2013-05-21 14:26:00,
2013-05-21 09:31:00,59.0,54.5,29.51,SSW,207,7.0,14.0,85,0.00,,---,0.00,287.00,VWS V14.01,2013-05-21 14:31:00,
2013-05-21 09:36:00,59.0,54.8,29.51,South,179,7.0,13.0,86,0.00,,---,0.00,420.00,VWS V14.01,2013-05-21 14:36:00,
2013-05-21 09:41:00,59.3,55.1,29.52,South,184,9.0,16.0,86,0.00,,---,0.00,448.00,VWS V14.01,2013-05-21 14:41:00,
2013-05-21 09:46:00,59.7,54.9,29.52,SSW,201,12.0,16.0,84,0.00,,---,0.00,939.00,VWS V14.01,2013-05-21 14:46:00,
2013-05-21 09:51:00,60.2,55.0,29.52,South,184,5.0,12.0,83,0.00,,---,0.00,202.00,VWS V14.01,2013-05-21 14:51:00,
2013-05-21 09:56:00,59.9,55.1,29.51,SSW,196,11.0,12.0,84,0.00,,---,0.00,756.00,VWS V14.01,2013-05-21 14:56:00,
2013-05-21 10:01:00,59.7,54.9,29.52,SSW,202,7.0,14.0,84,0.00,,---,0.00,190.00,VWS V14.01,2013-05-21 15:01:00,
2013-05-21 10:06:00,60.3,55.1,29.51,SSW,202,10.0,12.0,83,0.00,,---,0.00,823.00,VWS V14.01,2013-05-21 15:06:00,
2013-05-21 10:11:00,60.2,54.7,29.51,SSW,213,5.0,12.0,82,0.00,,---,0.00,308.00,VWS V14.01,2013-05-21 15:11:00,
2013-05-21 10:16:00,60.7,55.5,29.51,South,180,9.0,12.0,83,0.00,,---,0.00,336.00,VWS V14.01,2013-05-21 15:16:00,
2013-05-21 10:21:00,61.5,56.6,29.51,South,184,8.0,14.0,84,0.00,,---,0.00,990.00,VWS V14.01,2013-05-21 15:21:00,
2013-05-21 10:26:00,61.6,54.7,29.51,SSW,203,10.0,14.0,78,0.00,,---,0.00,232.00,VWS V14.01,2013-05-21 15:26:00,
2013-05-21 10:31:00,61.1,54.9,29.51,South,180,10.0,14.0,80,0.00,,---,0.00,264.00,VWS V14.01,2013-05-21 15:31:00,
2013-05-21 10:36:00,61.1,55.6,29.51,South,184,10.0,12.0,82,0.00,,---,0.00,422.00,VWS V14.01,2013-05-21 15:36:00,
2013-05-21 10:41:00,61.4,55.9,29.51,SSW,207,12.0,16.0,82,0.00,,---,0.00,865.00,VWS V14.01,2013-05-21 15:41:00,
2013-05-21 10:46:00,61.5,56.3,29.51,SW,230,12.0,17.0,83,0.00,,---,0.00,510.00,VWS V14.01,2013-05-21 15:46:00,
2013-05-21 10:51:00,60.8,54.9,29.51,SW,219,7.0,13.0,81,0.00,,---,0.00,302.00,VWS V14.01,2013-05-21 15:51:00,
2013-05-21 10:56:00,60.5,55.3,29.51,SW,223,10.0,13.0,83,0.00,,---,0.00,279.00,VWS V14.01,2013-05-21 15:56:00,
2013-05-21 11:01:00,60.4,54.9,29.51,SW,225,11.0,13.0,82,0.00,,---,0.00,265.00,VWS V14.01,2013-05-21 16:01:00,
2013-05-21 11:06:00,60.4,54.5,29.51,SW,219,6.0,10.0,81,0.00,,---,0.00,327.00,VWS V14.01,2013-05-21 16:06:00,
2013-05-21 11:11:00,60.8,55.6,29.51,SW,228,11.0,12.0,83,0.00,,---,0.00,336.00,VWS V14.01,2013-05-21 16:11:00,
2013-05-21 11:16:00,60.9,54.7,29.52,SW,232,5.0,13.0,80,0.00,,---,0.00,308.00,VWS V14.01,2013-05-21 16:16:00,
2013-05-21 11:21:00,61.2,55.7,29.52,SW,214,10.0,13.0,82,0.00,,---,0.00,374.00,VWS V14.01,2013-05-21 16:21:00,
2013-05-21 11:26:00,61.3,54.7,29.52,SW,218,11.0,13.0,79,0.00,,---,0.00,381.00,VWS V14.01,2013-05-21 16:26:00,
2013-05-21 11:31:00,61.4,54.8,29.52,SW,216,9.0,13.0,79,0.00,,---,0.00,325.00,VWS V14.01,2013-05-21 16:31:00,
2013-05-21 11:36:00,61.3,54.7,29.52,SSW,211,11.0,14.0,79,0.00,,---,0.00,185.00,VWS V14.01,2013-05-21 16:36:00,
2013-05-21 11:41:00,61.1,54.2,29.53,SW,215,6.0,14.0,78,0.00,,---,0.00,274.00,VWS V14.01,2013-05-21 16:41:00,
2013-05-21 11:46:00,61.0,53.8,29.53,SW,219,4.0,14.0,77,0.00,,---,0.00,237.00,VWS V14.01,2013-05-21 16:46:00,
2013-05-21 11:51:00,61.2,55.0,29.53,SW,227,10.0,10.0,80,0.00,,---,0.00,141.00,VWS V14.01,2013-05-21 16:51:00,
2013-05-21 11:56:00,61.1,54.2,29.53,SW,215,9.0,17.0,78,0.00,,---,0.00,111.00,VWS V14.01,2013-05-21 16:56:00,
2013-05-21 12:01:00,60.8,53.5,29.53,SSW,198,11.0,17.0,77,0.00,,---,0.00,149.00,VWS V14.01,2013-05-21 17:01:00,
2013-05-21 12:06:00,60.8,53.9,29.53,SSW,205,11.0,11.0,78,0.00,,---,0.00,172.00,VWS V14.01,2013-05-21 17:06:00,
2013-05-21 12:11:00,60.9,54.3,29.53,SW,215,10.0,12.0,79,0.00,,---,0.00,204.00,VWS V14.01,2013-05-21 17:11:00,
2013-05-21 12:16:00,61.1,53.8,29.53,SSW,206,10.0,13.0,77,0.00,,---,0.00,218.00,VWS V14.01,2013-05-21 17:16:00,
2013-05-21 12:21:00,61.3,54.0,29.53,SW,215,11.0,12.0,77,0.00,,---,0.00,262.00,VWS V14.01,2013-05-21 17:21:00,
2013-05-21 12:26:00,61.6,54.3,29.53,SSW,210,11.0,13.0,77,0.00,,---,0.00,313.00,VWS V14.01,2013-05-21 17:26:00,
2013-05-21 12:31:00,61.8,53.4,29.53,SSW,211,8.0,13.0,74,0.00,,---,0.00,294.00,VWS V14.01,2013-05-21 17:31:00,
2013-05-21 12:36:00,61.9,54.6,29.54,SSW,198,9.0,13.0,77,0.00,,---,0.00,241.00,VWS V14.01,2013-05-21 17:36:00,
2013-05-21 12:41:00,62.1,54.5,29.54,South,191,6.0,13.0,76,0.00,,---,0.00,221.00,VWS V14.01,2013-05-21 17:41:00,
2013-05-21 12:46:00,62.0,54.4,29.54,SSW,200,9.0,13.0,76,0.00,,---,0.00,260.00,VWS V14.01,2013-05-21 17:46:00,
2013-05-21 12:51:00,62.0,52.5,29.54,South,179,9.0,14.0,71,0.00,,---,0.00,327.00,VWS V14.01,2013-05-21 17:51:00,
2013-05-21 12:56:00,62.3,53.2,29.54,South,188,11.0,14.0,72,0.00,,---,0.00,387.00,VWS V14.01,2013-05-21 17:56:00,
2013-05-21 13:07:00,62.7,54.3,29.54,SSW,194,12.0,14.0,74,0.00,,---,0.00,236.00,VWS V14.01,2013-05-21 18:07:00,
2013-05-21 13:12:00,62.3,53.9,29.54,SSW,202,11.0,16.0,74,0.00,,---,0.00,197.00,VWS V14.01,2013-05-21 18:12:00,
2013-05-21 13:19:00,61.8,53.8,29.55,SSW,200,11.0,15.0,75,0.00,,---,0.00,239.00,VWS V14.01,2013-05-21 18:19:00,
2013-05-21 13:25:00,61.6,53.2,29.55,SSW,198,13.0,16.0,74,0.00,,---,0.00,294.00,VWS V14.01,2013-05-21 18:25:00,
2013-05-21 13:30:00,61.7,54.8,29.55,SW,232,13.0,16.0,78,0.00,,---,0.00,366.00,VWS V14.01,2013-05-21 18:30:00,
2013-05-21 13:34:00,61.7,54.1,29.55,SSW,208,11.0,15.0,76,0.00,,---,0.00,343.00,VWS V14.01,2013-05-21 18:34:00,
2013-05-21 13:39:00,61.8,54.2,29.55,SW,226,11.0,15.0,76,0.00,,---,0.00,352.00,VWS V14.01,2013-05-21 18:39:00,
2013-05-21 13:44:00,61.7,54.1,29.55,SW,217,11.0,15.0,76,0.00,,---,0.00,258.00,VWS V14.01,2013-05-21 18:44:00,
2013-05-21 13:49:00,61.4,52.7,29.55,SSW,206,11.0,11.0,73,0.00,,---,0.00,185.00,VWS V14.01,2013-05-21 18:49:00,
2013-05-21 13:55:00,61.2,52.9,29.55,SW,215,12.0,14.0,74,0.00,,---,0.00,153.00,VWS V14.01,2013-05-21 18:55:00,
2013-05-21 14:00:00,60.9,52.2,29.55,SSW,199,10.0,14.0,73,0.00,,---,0.00,130.00,VWS V14.01,2013-05-21 19:00:00,
2013-05-21 14:05:00,60.7,52.4,29.56,SSW,206,7.0,10.0,74,0.00,,---,0.00,109.00,VWS V14.01,2013-05-21 19:05:00,
2013-05-21 14:10:00,60.6,52.3,29.56,SSW,212,12.0,12.0,74,0.00,,---,0.00,104.00,VWS V14.01,2013-05-21 19:10:00,
2013-05-21 14:15:00,60.5,52.9,29.56,SSW,213,10.0,12.0,76,0.00,,---,0.00,102.00,VWS V14.01,2013-05-21 19:15:00,
2013-05-21 14:20:00,60.4,52.8,29.56,SSW,209,6.0,9.0,76,0.00,,---,0.00,100.00,VWS V14.01,2013-05-21 19:20:00,
2013-05-21 14:25:00,60.5,52.5,29.56,SW,214,9.0,11.0,75,0.00,,---,0.00,105.00,VWS V14.01,2013-05-21 19:25:00,
2013-05-21 14:30:00,60.6,52.6,29.56,SSW,212,5.0,12.0,75,0.00,,---,0.00,120.00,VWS V14.01,2013-05-21 19:30:00,
2013-05-21 14:35:00,60.6,52.3,29.56,SW,220,6.0,9.0,74,0.00,,---,0.00,132.00,VWS V14.01,2013-05-21 19:35:00,
2013-05-21 14:40:00,60.7,53.1,29.56,SW,217,5.0,9.0,76,0.00,,---,0.00,144.00,VWS V14.01,2013-05-21 19:40:00,
2013-05-21 14:45:00,60.8,52.8,29.56,SSW,203,6.0,11.0,75,0.00,,---,0.00,155.00,VWS V14.01,2013-05-21 19:45:00,
2013-05-21 14:50:00,60.8,53.9,29.56,SSW,207,11.0,12.0,78,0.00,,---,0.00,158.00,VWS V14.01,2013-05-21 19:50:00,
2013-05-21 14:55:00,60.7,52.7,29.56,SSW,209,12.0,13.0,75,0.00,,---,0.00,176.00,VWS V14.01,2013-05-21 19:55:00,
2013-05-21 15:00:00,60.7,52.7,29.57,SSW,211,6.0,13.0,75,0.00,,---,0.00,192.00,VWS V14.01,2013-05-21 20:00:00,
2013-05-21 15:05:00,60.7,53.1,29.57,SSW,212,10.0,11.0,76,0.00,,---,0.00,193.00,VWS V14.01,2013-05-21 20:05:00,
2013-05-21 15:10:00,60.8,53.2,29.58,SSW,204,9.0,11.0,76,0.00,,---,0.00,202.00,VWS V14.01,2013-05-21 20:10:00,
2013-05-21 15:15:00,61.0,53.8,29.58,SSW,207,6.0,11.0,77,0.00,,---,0.00,204.00,VWS V14.01,2013-05-21 20:15:00,
2013-05-21 15:20:00,61.1,53.5,29.58,SSW,213,9.0,11.0,76,0.00,,---,0.00,211.00,VWS V14.01,2013-05-21 20:20:00,
2013-05-21 15:25:00,61.0,52.7,29.58,SSW,213,10.0,14.0,74,0.00,,---,0.00,206.00,VWS V14.01,2013-05-21 20:25:00,
2013-05-21 15:30:00,60.9,52.6,29.58,SW,215,9.0,14.0,74,0.00,,---,0.00,229.00,VWS V14.01,2013-05-21 20:30:00,
2013-05-21 15:35:00,61.0,52.3,29.58,SW,219,8.0,10.0,73,0.00,,---,0.00,313.00,VWS V14.01,2013-05-21 20:35:00,
2013-05-21 15:40:00,61.2,52.9,29.58,SW,222,7.0,12.0,74,0.00,,---,0.00,309.00,VWS V14.01,2013-05-21 20:40:00,
2013-05-21 15:45:00,61.4,53.4,29.58,SW,223,7.0,12.0,75,0.00,,---,0.00,265.00,VWS V14.01,2013-05-21 20:45:00,
2013-05-21 15:50:00,61.4,53.0,29.58,SW,219,5.0,10.0,74,0.00,,---,0.00,190.00,VWS V14.01,2013-05-21 20:50:00,
2013-05-21 15:55:00,61.3,53.0,29.58,South,184,7.0,11.0,74,0.00,,---,0.00,155.00,VWS V14.01,2013-05-21 20:55:00,
2013-05-21 16:00:00,61.3,53.7,29.58,SSW,202,9.0,11.0,76,0.00,,---,0.00,151.00,VWS V14.01,2013-05-21 21:00:00,
2013-05-21 16:05:00,61.2,53.2,29.58,SSW,213,9.0,11.0,75,0.00,,---,0.00,134.00,VWS V14.01,2013-05-21 21:05:00,
2013-05-21 16:10:00,61.1,52.8,29.59,SSW,204,9.0,12.0,74,0.00,,---,0.00,167.00,VWS V14.01,2013-05-21 21:10:00,
2013-05-21 16:15:00,61.2,53.2,29.59,South,188,10.0,12.0,75,0.00,,---,0.00,188.00,VWS V14.01,2013-05-21 21:15:00,
2013-05-21 16:20:00,61.1,52.4,29.59,South,188,12.0,15.0,73,0.00,,---,0.00,158.00,VWS V14.01,2013-05-21 21:20:00,
2013-05-21 16:25:00,61.0,53.0,29.59,South,190,18.0,19.0,75,0.00,,---,0.00,174.00,VWS V14.01,2013-05-21 21:25:00,
2013-05-21 16:30:00,60.4,52.8,29.59,SSW,204,13.0,19.0,76,0.00,,---,0.00,223.00,VWS V14.01,2013-05-21 21:30:00,
2013-05-21 16:35:00,60.0,52.8,29.59,SSW,196,18.0,21.0,77,0.00,,---,0.00,223.00,VWS V14.01,2013-05-21 21:35:00,
2013-05-21 16:40:00,59.4,52.2,29.59,SSW,198,14.0,21.0,77,0.00,,---,0.00,188.00,VWS V14.01,2013-05-21 21:40:00,
2013-05-21 16:45:00,59.1,52.3,29.59,SSW,202,12.0,21.0,78,0.00,,---,0.00,162.00,VWS V14.01,2013-05-21 21:45:00,
2013-05-21 16:50:00,59.0,52.2,29.59,South,191,9.0,12.0,78,0.00,,---,0.00,153.00,VWS V14.01,2013-05-21 21:50:00,
2013-05-21 16:55:00,59.0,52.5,29.59,SSW,206,12.0,13.0,79,0.00,,---,0.00,141.00,VWS V14.01,2013-05-21 21:55:00,
2013-05-21 17:00:00,59.0,52.8,29.59,South,186,10.0,13.0,80,0.00,,---,0.00,120.00,VWS V14.01,2013-05-21 22:00:00,
2013-05-21 17:05:00,59.0,52.8,29.59,SSW,204,6.0,10.0,80,0.00,,---,0.00,109.00,VWS V14.01,2013-05-21 22:05:00,
2013-05-21 17:10:00,59.0,52.8,29.59,SSW,198,8.0,12.0,80,0.00,,---,0.00,111.00,VWS V14.01,2013-05-21 22:10:00,
2013-05-21 17:15:00,58.9,53.1,29.59,South,184,6.0,12.0,81,0.00,,---,0.00,113.00,VWS V14.01,2013-05-21 22:15:00,
2013-05-21 17:20:00,58.6,53.1,29.59,South,191,8.0,10.0,82,0.00,,---,0.00,102.00,VWS V14.01,2013-05-21 22:20:00,
2013-05-21 17:25:00,58.6,53.1,29.59,SSW,199,5.0,10.0,82,0.00,,---,0.00,107.00,VWS V14.01,2013-05-21 22:25:00,
2013-05-21 17:30:00,58.6,52.8,29.59,SSW,198,3.0,10.0,81,0.00,,---,0.00,116.00,VWS V14.01,2013-05-21 22:30:00,
2013-05-21 17:35:00,58.7,52.9,29.59,SSW,198,4.0,7.0,81,0.00,,---,0.00,121.00,VWS V14.01,2013-05-21 22:35:00,
2013-05-21 17:40:00,58.9,53.1,29.59,SSW,199,2.0,7.0,81,0.00,,---,0.00,100.00,VWS V14.01,2013-05-21 22:40:00,
2013-05-21 17:45:00,58.9,52.8,29.59,SSW,211,6.0,7.0,80,0.00,,---,0.00,98.00,VWS V14.01,2013-05-21 22:45:00,
2013-05-21 17:50:00,58.9,52.8,29.59,SW,222,3.0,6.0,80,0.00,,---,0.00,95.00,VWS V14.01,2013-05-21 22:50:00,
2013-05-21 17:56:00,59.0,52.8,29.59,SW,222,1.0,6.0,80,0.00,,---,0.00,102.00,VWS V14.01,2013-05-21 22:56:00,
2013-05-21 18:04:00,59.0,52.2,29.59,SW,221,2.0,2.0,78,0.00,,---,0.00,90.00,VWS V14.01,2013-05-21 23:04:00,
2013-05-21 18:11:00,59.0,52.5,29.59,SW,221,3.0,3.0,79,0.00,,---,0.00,100.00,VWS V14.01,2013-05-21 23:11:00,
2013-05-21 18:16:00,59.0,52.5,29.59,SW,221,2.0,4.0,79,0.00,,---,0.00,104.00,VWS V14.01,2013-05-21 23:16:00,
2013-05-21 18:21:00,59.0,52.2,29.59,SW,221,1.0,3.0,78,0.00,,---,0.00,100.00,VWS V14.01,2013-05-21 23:21:00,
2013-05-21 18:45:00,59.0,52.5,29.59,SW,216,3.0,3.0,79,0.00,,---,0.00,86.00,VWS V14.01,2013-05-21 23:45:00,
2013-05-21 18:51:00,59.0,52.2,29.59,SW,221,0.0,2.0,78,0.00,,---,0.00,74.00,VWS V14.01,2013-05-21 23:51:00,
2013-05-21 19:00:00,59.0,52.2,29.59,SW,221,0.0,2.0,78,0.00,,---,0.00,60.00,VWS V14.01,2013-05-22 00:00:00,
2013-05-21 19:05:00,59.0,52.2,29.59,SW,221,0.0,0.0,78,0.00,,---,0.00,40.00,VWS V14.01,2013-05-22 00:05:00,
2013-05-21 19:10:00,59.0,52.2,29.59,SW,221,0.0,2.0,78,0.00,,---,0.00,21.00,VWS V14.01,2013-05-22 00:10:00,
2013-05-21 19:16:00,59.0,52.2,29.60,SW,221,0.0,2.0,78,0.00,,---,0.00,12.00,VWS V14.01,2013-05-22 00:16:00,
2013-05-21 19:21:00,59.0,51.8,29.60,SW,221,0.0,0.0,77,0.00,,---,0.00,11.00,VWS V14.01,2013-05-22 00:21:00,
2013-05-21 19:27:00,59.0,52.5,29.61,SW,221,0.0,0.0,79,0.00,,---,0.00,12.00,VWS V14.01,2013-05-22 00:27:00,
2013-05-21 19:33:00,59.0,52.8,29.61,SW,221,0.0,0.0,80,0.00,,---,0.00,12.00,VWS V14.01,2013-05-22 00:33:00,
2013-05-21 19:38:00,59.0,52.8,29.62,SW,221,0.0,0.0,80,0.00,,---,0.00,12.00,VWS V14.01,2013-05-22 00:38:00,
2013-05-21 19:45:00,59.0,53.2,29.61,SW,221,0.0,0.0,81,0.00,,---,0.00,16.00,VWS V14.01,2013-05-22 00:45:00,
2013-05-21 19:50:00,58.9,52.8,29.61,SW,221,0.0,0.0,80,0.00,,---,0.00,12.00,VWS V14.01,2013-05-22 00:50:00,
2013-05-21 19:55:00,58.8,53.0,29.62,SW,221,0.0,0.0,81,0.00,,---,0.00,9.00,VWS V14.01,2013-05-22 00:55:00,
2013-05-21 20:01:00,58.7,53.2,29.61,SW,221,0.0,0.0,82,0.00,,---,0.00,5.00,VWS V14.01,2013-05-22 01:01:00,
2013-05-21 20:07:00,58.6,52.8,29.61,SW,221,0.0,0.0,81,0.00,,---,0.00,0.00,VWS V14.01,2013-05-22 01:07:00,
2013-05-21 20:12:00,58.6,53.1,29.61,SW,221,0.0,0.0,82,0.00,,---,0.00,0.00,VWS V14.01,2013-05-22 01:12:00,
2013-05-21 20:17:00,58.6,53.1,29.62,SW,221,0.0,0.0,82,0.00,,---,0.00,0.00,VWS V14.01,2013-05-22 01:17:00,
2013-05-21 20:22:00,58.5,53.4,29.62,SW,221,0.0,0.0,83,0.00,,---,0.00,0.00,VWS V14.01,2013-05-22 01:22:00,
2013-05-21 20:27:00,58.4,53.6,29.62,SW,221,0.0,0.0,84,0.00,,---,0.00,0.00,VWS V14.01,2013-05-22 01:27:00,
2013-05-21 20:32:00,58.3,53.5,29.62,SW,221,1.0,2.0,84,0.00,,---,0.00,0.00,VWS V14.01,2013-05-22 01:32:00,
2013-05-21 20:37:00,58.2,53.7,29.62,SW,221,2.0,3.0,85,0.00,,---,0.00,0.00,VWS V14.01,2013-05-22 01:37:00,
2013-05-21 20:42:00,58.1,53.9,29.62,SW,221,0.0,3.0,86,0.00,,---,0.00,0.00,VWS V14.01,2013-05-22 01:42:00,
2013-05-21 20:47:00,57.9,52.8,29.62,SW,227,0.0,3.0,83,0.00,,---,0.00,0.00,VWS V14.01,2013-05-22 01:47:00,
2013-05-21 20:52:00,57.9,53.4,29.63,SW,227,0.0,0.0,85,0.00,,---,0.00,0.00,VWS V14.01,2013-05-22 01:52:00,
2013-05-21 20:57:00,57.8,53.0,29.63,SW,227,0.0,0.0,84,0.00,,---,0.00,0.00,VWS V14.01,2013-05-22 01:57:00,
2013-05-21 21:02:00,57.8,53.3,29.63,SW,227,0.0,0.0,85,0.00,,---,0.00,0.00,VWS V14.01,2013-05-22 02:02:00,
2013-05-21 21:07:00,57.7,53.5,29.63,WSW,246,0.0,0.0,86,0.00,,---,0.00,0.00,VWS V14.01,2013-05-22 02:07:00,
2013-05-21 21:12:00,57.6,53.8,29.63,West,275,0.0,0.0,87,0.00,,---,0.00,0.00,VWS V14.01,2013-05-22 02:12:00,
2013-05-21 21:17:00,57.3,53.5,29.63,NNW,345,0.0,0.0,87,0.00,,---,0.00,0.00,VWS V14.01,2013-05-22 02:17:00,
2013-05-21 21:22:00,57.1,53.3,29.63,North,360,2.0,2.0,87,0.00,,---,0.00,0.00,VWS V14.01,2013-05-22 02:22:00,
2013-05-21 21:27:00,56.9,53.4,29.63,North,11,3.0,4.0,88,0.00,,---,0.00,0.00,VWS V14.01,2013-05-22 02:27:00,
2013-05-21 21:32:00,56.7,53.5,29.64,NNE,16,0.0,5.0,89,0.00,,---,0.00,0.00,VWS V14.01,2013-05-22 02:32:00,
2013-05-21 21:37:00,56.6,53.4,29.64,NNE,26,2.0,7.0,89,0.00,,---,0.00,0.00,VWS V14.01,2013-05-22 02:37:00,
2013-05-21 21:42:00,56.5,53.3,29.64,NNE,28,0.0,7.0,89,0.00,,---,0.00,0.00,VWS V14.01,2013-05-22 02:42:00,
2013-05-21 21:47:00,56.4,53.2,29.64,NNE,30,0.0,7.0,89,0.00,,---,0.00,0.00,VWS V14.01,2013-05-22 02:47:00,
2013-05-21 21:52:00,56.2,53.0,29.64,NNE,29,3.0,5.0,89,0.00,,---,0.00,0.00,VWS V14.01,2013-05-22 02:52:00,
2013-05-21 21:57:00,56.2,53.3,29.64,NE,36,5.0,9.0,90,0.00,,---,0.00,0.00,VWS V14.01,2013-05-22 02:57:00,
2013-05-21 22:02:00,56.0,53.4,29.64,NE,37,10.0,10.0,91,0.00,,---,0.00,0.00,VWS V14.01,2013-05-22 03:02:00,
2013-05-21 22:07:00,55.7,53.1,29.64,NE,38,9.0,12.0,91,0.00,,---,0.00,0.00,VWS V14.01,2013-05-22 03:07:00,
2013-05-21 22:12:00,55.5,53.2,29.64,NE,48,5.0,12.0,92,0.00,,---,0.00,0.00,VWS V14.01,2013-05-22 03:12:00,
2013-05-21 22:17:00,55.2,52.9,29.64,NE,42,11.0,13.0,92,0.00,,---,0.00,0.00,VWS V14.01,2013-05-22 03:17:00,
2013-05-21 22:22:00,55.0,52.7,29.63,NE,38,8.0,12.0,92,0.00,,---,0.00,0.00,VWS V14.01,2013-05-22 03:22:00,
2013-05-21 22:27:00,54.8,52.5,29.63,NE,50,8.0,12.0,92,0.00,,---,0.00,0.00,VWS V14.01,2013-05-22 03:27:00,
2013-05-21 22:32:00,54.6,52.6,29.64,NE,45,5.0,12.0,93,0.00,,---,0.00,0.00,VWS V14.01,2013-05-22 03:32:00,
2013-05-21 22:37:00,54.5,52.5,29.64,NE,42,6.0,10.0,93,0.00,,---,0.00,0.00,VWS V14.01,2013-05-22 03:37:00,
2013-05-21 22:42:00,54.4,52.4,29.64,NE,46,7.0,10.0,93,0.00,,---,0.00,0.00,VWS V14.01,2013-05-22 03:42:00,
2013-05-21 22:47:00,54.2,52.2,29.65,NNE,30,13.0,13.0,93,0.00,,---,0.00,0.00,VWS V14.01,2013-05-22 03:47:00,
2013-05-21 22:52:00,54.0,52.0,29.65,NE,35,5.0,11.0,93,0.00,,---,0.00,0.00,VWS V14.01,2013-05-22 03:52:00,
2013-05-21 22:57:00,53.9,51.9,29.65,NE,41,6.0,12.0,93,0.00,,---,0.00,0.00,VWS V14.01,2013-05-22 03:57:00,
2013-05-21 23:01:00,53.8,51.8,29.65,NE,34,6.0,13.0,93,0.00,,---,0.00,0.00,VWS V14.01,2013-05-22 04:01:00,
2013-05-21 23:06:00,53.7,51.7,29.65,NNE,33,10.0,13.0,93,0.00,,---,0.00,0.00,VWS V14.01,2013-05-22 04:06:00,
2013-05-21 23:11:00,53.6,51.6,29.65,NE,49,7.0,13.0,93,0.00,,---,0.00,0.00,VWS V14.01,2013-05-22 04:11:00,
2013-05-21 23:16:00,53.5,51.5,29.65,NE,52,5.0,13.0,93,0.00,,---,0.00,0.00,VWS V14.01,2013-05-22 04:16:00,
2013-05-21 23:21:00,53.3,51.3,29.65,NE,49,6.0,11.0,93,0.00,,---,0.00,0.00,VWS V14.01,2013-05-22 04:21:00,
2013-05-21 23:26:00,53.3,51.3,29.65,NE,37,6.0,11.0,93,0.00,,---,0.00,0.00,VWS V14.01,2013-05-22 04:26:00,
2013-05-21 23:31:00,53.1,51.1,29.65,NE,38,6.0,11.0,93,0.00,,---,0.00,0.00,VWS V14.01,2013-05-22 04:31:00,
2013-05-21 23:36:00,52.9,50.9,29.65,NE,41,12.0,13.0,93,0.00,,---,0.00,0.00,VWS V14.01,2013-05-22 04:36:00,
2013-05-21 23:41:00,52.8,50.8,29.65,NNE,30,5.0,13.0,93,0.00,,---,0.00,0.00,VWS V14.01,2013-05-22 04:41:00,
2013-05-21 23:46:00,52.6,50.6,29.65,NE,40,4.0,13.0,93,0.00,,---,0.00,0.00,VWS V14.01,2013-05-22 04:46:00,
2013-05-21 23:51:00,52.5,50.5,29.65,NE,34,4.0,11.0,93,0.00,,---,0.00,0.00,VWS V14.01,2013-05-22 04:51:00,
2013-05-21 23:56:00,52.6,50.6,29.65,NNE,26,7.0,12.0,93,0.00,,---,0.00,0.00,VWS V14.01,2013-05-22 04:56:00,